createdAt,value
2022-12-23T00:01:11.689Z,21.74
2022-12-23T00:11:14.869Z,21.72
2022-12-23T00:21:18.081Z,21.72
2022-12-23T00:31:21.485Z,21.72
2022-12-23T00:41:24.769Z,21.72
2022-12-23T00:51:27.934Z,21.72
2022-12-23T01:01:31.359Z,21.75
2022-12-23T01:11:34.585Z,21.74
2022-12-23T01:21:37.770Z,21.74
2022-12-23T01:31:41.013Z,21.74
2022-12-23T01:41:44.219Z,21.74
2022-12-23T01:51:47.359Z,21.74
2022-12-23T02:01:50.803Z,21.72
2022-12-23T02:11:54.061Z,21.75
2022-12-23T02:21:57.253Z,21.75
2022-12-23T02:32:00.476Z,21.74
2022-12-23T02:42:03.679Z,21.76
2022-12-23T02:52:06.833Z,21.75
2022-12-23T03:02:10.229Z,21.74
2022-12-23T03:12:13.568Z,21.74
2022-12-23T03:22:16.735Z,21.75
2022-12-23T03:32:19.877Z,21.75
2022-12-23T03:42:23.122Z,21.74
2022-12-23T03:52:26.259Z,21.75
2022-12-23T04:02:29.691Z,21.75
2022-12-23T04:12:32.969Z,21.75
2022-12-23T04:22:36.156Z,21.74
2022-12-23T04:32:39.300Z,21.76
2022-12-23T04:42:42.524Z,21.75
2022-12-23T04:52:45.671Z,21.75
2022-12-23T05:02:49.021Z,21.76
2022-12-23T05:12:52.248Z,21.76
2022-12-23T05:22:55.455Z,21.75
2022-12-23T05:32:58.634Z,21.76
2022-12-23T05:43:01.877Z,21.76
2022-12-23T05:53:05.015Z,21.75
2022-12-23T06:03:08.479Z,21.75
2022-12-23T06:13:11.725Z,21.74
2022-12-23T06:23:14.915Z,21.75
2022-12-23T06:33:18.079Z,21.75
2022-12-23T06:43:21.440Z,21.74
2022-12-23T06:53:24.588Z,21.76
2022-12-23T07:03:27.927Z,21.75
2022-12-23T07:13:31.205Z,21.74
2022-12-23T07:23:34.384Z,21.74
2022-12-23T07:33:37.527Z,21.75
2022-12-23T07:43:40.715Z,21.74
2022-12-23T07:53:43.863Z,21.75
2022-12-23T08:03:47.191Z,21.74
2022-12-23T08:13:50.375Z,21.74
2022-12-23T08:23:53.557Z,21.74
2022-12-23T08:33:56.705Z,21.74
2022-12-23T08:43:59.906Z,21.74
2022-12-23T08:54:03.049Z,21.75
2022-12-23T09:04:06.243Z,21.74
2022-12-23T09:14:09.375Z,21.75
2022-12-23T09:24:12.557Z,21.75
2022-12-23T09:34:15.706Z,21.74
2022-12-23T09:44:18.970Z,21.71
2022-12-23T09:54:22.139Z,21.64
2022-12-23T10:04:25.464Z,21.66
2022-12-23T10:14:28.672Z,21.67
2022-12-23T10:24:31.918Z,21.69
2022-12-23T10:34:38.648Z,21.71
2022-12-23T10:44:39.484Z,21.72
2022-12-23T10:54:42.676Z,21.71
2022-12-23T11:04:45.860Z,21.74
2022-12-23T11:14:49.004Z,21.74
2022-12-23T11:24:52.201Z,21.76
2022-12-23T11:34:55.661Z,21.74
2022-12-23T11:44:58.848Z,21.75
2022-12-23T11:55:01.984Z,21.75
2022-12-23T12:05:05.187Z,21.78
2022-12-23T12:15:08.335Z,21.76
2022-12-23T12:25:11.589Z,21.78
2022-12-23T12:35:14.760Z,21.76
2022-12-23T12:45:17.949Z,21.78
2022-12-23T12:55:21.101Z,21.78
2022-12-23T13:05:24.289Z,21.78
2022-12-23T13:15:27.431Z,21.78
2022-12-23T13:25:30.606Z,21.76
2022-12-23T13:35:33.742Z,21.79
2022-12-23T13:45:37.006Z,21.79
2022-12-23T13:55:40.288Z,21.81
2022-12-23T14:05:43.457Z,21.81
2022-12-23T14:15:46.684Z,21.81
2022-12-23T14:25:49.952Z,21.81
2022-12-23T14:35:53.084Z,21.81
2022-12-23T14:45:56.303Z,21.81
2022-12-23T14:55:59.483Z,21.81
2022-12-23T15:06:02.753Z,21.81
2022-12-23T15:16:05.950Z,21.81
2022-12-23T15:26:09.138Z,21.81
2022-12-23T15:36:12.359Z,21.81
2022-12-23T15:46:15.581Z,21.81
2022-12-23T15:56:18.741Z,21.81
2022-12-23T16:06:21.923Z,21.81
2022-12-23T16:16:25.193Z,21.81
2022-12-23T16:26:28.403Z,21.83
2022-12-23T16:36:31.707Z,21.82
2022-12-23T16:46:34.906Z,21.85
2022-12-23T16:56:38.058Z,21.88
2022-12-23T17:06:41.234Z,21.91
2022-12-23T17:16:45.158Z,21.95
2022-12-23T17:26:48.352Z,21.95
2022-12-23T17:36:51.781Z,21.98
2022-12-23T17:46:56.099Z,21.98
2022-12-23T17:56:59.228Z,21.97
2022-12-23T18:07:02.407Z,21.97
2022-12-23T18:17:05.615Z,21.97
2022-12-23T18:27:08.845Z,21.97
2022-12-23T18:37:11.982Z,21.97
2022-12-23T18:47:15.163Z,21.95
2022-12-23T18:57:18.310Z,21.94
2022-12-23T19:07:21.493Z,21.97
2022-12-23T19:17:24.641Z,21.92
2022-12-23T19:27:27.818Z,21.95
2022-12-23T19:37:30.965Z,21.94
2022-12-23T19:47:34.173Z,21.97
2022-12-23T19:57:37.330Z,21.95
2022-12-23T20:07:40.501Z,21.95
2022-12-23T20:17:43.641Z,21.97
2022-12-23T20:27:46.830Z,21.97
2022-12-23T20:37:49.962Z,21.95
2022-12-23T20:47:53.708Z,21.97
2022-12-23T20:57:56.842Z,21.94
2022-12-23T21:08:00.096Z,21.95
2022-12-23T21:18:03.261Z,21.95
2022-12-23T21:28:06.452Z,21.95
2022-12-23T21:38:09.593Z,21.95
2022-12-23T21:48:12.787Z,21.95
2022-12-23T21:58:15.939Z,21.95
2022-12-23T22:08:19.111Z,21.95
2022-12-23T22:18:22.244Z,21.95
2022-12-23T22:28:25.436Z,21.97
2022-12-23T22:38:28.593Z,21.97
2022-12-23T22:48:31.798Z,21.95
2022-12-23T22:58:34.933Z,21.97
2022-12-23T23:08:38.109Z,21.97
2022-12-23T23:18:41.261Z,21.97
2022-12-23T23:28:44.445Z,21.97
2022-12-23T23:38:47.604Z,21.97
2022-12-23T23:48:50.835Z,21.95
2022-12-23T23:58:53.987Z,21.95
